Time;durP1;ratioP1;P1;durP2;ratioP2;P2;SDS_P1;SDS_P2;PMS_P1;PMS_P2;Temp;Humidity;BMP_temperature;BMP_pressure;BME280_temperature;BME280_humidity;BME280_pressure;Samples;Min_cycle;Max_cycle;Signal;HPM_P1;HPM_P2
2022/12/10 00:02:10;;;;;;;198.05;42.75;;;;;;;-1.53;100.00;99487.16;5085021;28;20261;-67
2022/12/10 00:04:36;;;;;;;99.63;39.05;;;;;;;-1.44;100.00;99482.31;5087292;28;20221;-68
2022/12/10 00:07:03;;;;;;;163.05;43.83;;;;;;;-1.41;100.00;99493.47;5096509;28;20275;-68
2022/12/10 00:09:30;;;;;;;131.25;42.42;;;;;;;-1.48;100.00;99489.50;5079824;28;20236;-66
2022/12/10 00:11:56;;;;;;;185.40;48.38;;;;;;;-1.42;100.00;99485.72;5084350;28;20253;-66
2022/12/10 00:14:24;;;;;;;145.27;47.67;;;;;;;-1.49;100.00;99485.22;5081675;28;20815;-66
2022/12/10 00:16:51;;;;;;;291.13;54.53;;;;;;;-1.74;100.00;99494.38;5098358;28;20324;-68
2022/12/10 00:19:17;;;;;;;228.27;47.38;;;;;;;-1.54;100.00;99501.19;5086120;28;20198;-67
2022/12/10 00:21:45;;;;;;;172.60;46.60;;;;;;;-1.51;100.00;99500.19;5093214;28;20230;-68
2022/12/10 00:24:11;;;;;;;192.77;46.67;;;;;;;-1.39;100.00;99498.66;5095899;28;20201;-66
2022/12/10 00:26:42;;;;;;;146.40;44.60;;;;;;;-1.42;100.00;99499.69;5083500;28;20238;-68
2022/12/10 00:29:11;;;;;;;210.27;46.88;;;;;;;-1.35;100.00;99497.56;5088722;28;20230;-66
2022/12/10 00:31:39;;;;;;;185.70;42.33;;;;;;;-1.42;100.00;99496.22;5080145;28;20237;-68
2022/12/10 00:34:08;;;;;;;139.00;40.47;;;;;;;-1.43;100.00;99497.97;5094225;28;20236;-67
2022/12/10 00:36:36;;;;;;;96.22;38.20;;;;;;;-1.37;100.00;99495.03;5093930;28;20237;-67
2022/12/10 00:39:03;;;;;;;81.35;38.58;;;;;;;-1.26;100.00;99489.19;5093227;28;20227;-68
2022/12/10 00:41:30;;;;;;;109.63;41.30;;;;;;;-1.23;100.00;99496.03;5085991;28;20262;-68
2022/12/10 00:43:57;;;;;;;76.70;38.50;;;;;;;-1.17;100.00;99493.09;5087616;28;20245;-68
2022/12/10 00:46:24;;;;;;;114.43;39.60;;;;;;;-1.29;100.00;99486.72;5079835;28;20269;-69
2022/12/10 00:48:52;;;;;;;85.53;39.58;;;;;;;-1.44;100.00;99498.06;5078645;28;20233;-68
2022/12/10 00:51:20;;;;;;;89.10;37.70;;;;;;;-1.62;100.00;99490.25;5079876;28;20325;-68
2022/12/10 00:53:48;;;;;;;64.13;37.80;;;;;;;-1.41;100.00;99495.28;5088787;28;20594;-68
2022/12/10 00:56:20;;;;;;;67.25;37.53;;;;;;;-1.29;100.00;99488.50;5089000;28;20265;-67
2022/12/10 00:58:47;;;;;;;77.30;36.35;;;;;;;-1.36;100.00;99499.31;5083194;28;20237;-68
2022/12/10 01:01:17;;;;;;;90.60;38.45;;;;;;;-1.40;100.00;99497.81;5082165;28;20241;-67
2022/12/10 01:03:44;;;;;;;73.15;37.22;;;;;;;-1.33;100.00;99491.28;5084139;28;20246;-68
2022/12/10 01:06:14;;;;;;;63.15;37.00;;;;;;;-1.29;100.00;99501.63;5084088;28;20269;-68
2022/12/10 01:08:42;;;;;;;66.35;36.15;;;;;;;-1.23;100.00;99499.53;5104023;28;20252;-67
2022/12/10 01:11:09;;;;;;;73.88;38.95;;;;;;;-1.23;100.00;99494.28;5103848;28;20299;-67
2022/12/10 01:13:36;;;;;;;79.45;39.15;;;;;;;-1.20;100.00;99501.13;5076892;28;20648;-65
2022/12/10 01:16:03;;;;;;;76.25;37.58;;;;;;;-1.18;100.00;99504.50;5085535;28;20769;-68
2022/12/10 01:18:29;;;;;;;82.57;42.10;;;;;;;-1.17;100.00;99521.94;5103792;28;20225;-67
2022/12/10 01:20:56;;;;;;;73.90;37.50;;;;;;;-1.13;100.00;99512.94;5092690;28;20333;-70
2022/12/10 01:23:24;;;;;;;73.10;38.97;;;;;;;-1.25;100.00;99525.00;5097010;28;20230;-69
2022/12/10 01:25:50;;;;;;;71.90;38.63;;;;;;;-1.16;100.00;99532.34;5083151;28;20532;-68
2022/12/10 01:28:17;;;;;;;84.18;41.00;;;;;;;-1.03;100.00;99529.88;5104112;28;20241;-67
2022/12/10 01:30:44;;;;;;;71.13;37.30;;;;;;;-1.03;100.00;99526.41;5100927;28;20320;-66
2022/12/10 01:33:10;;;;;;;67.85;37.78;;;;;;;-0.99;100.00;99530.56;5101947;28;20240;-67
2022/12/10 01:35:37;;;;;;;92.28;39.25;;;;;;;-1.06;100.00;99527.44;5096210;28;20253;-67
2022/12/10 01:38:04;;;;;;;80.90;39.42;;;;;;;-1.10;100.00;99525.91;5091223;28;20265;-67
2022/12/10 01:40:32;;;;;;;90.22;44.20;;;;;;;-1.03;100.00;99529.03;5083700;28;20241;-67
2022/12/10 01:42:58;;;;;;;80.57;39.97;;;;;;;-1.09;100.00;99527.63;5083395;28;20233;-67
2022/12/10 01:45:28;;;;;;;78.25;37.97;;;;;;;-1.07;100.00;99528.38;5093302;28;20237;-68
2022/12/10 01:47:58;;;;;;;73.68;39.67;;;;;;;-1.07;100.00;99524.91;5089278;28;20301;-68
2022/12/10 01:50:24;;;;;;;76.63;39.58;;;;;;;-1.02;100.00;99525.50;5090042;28;20210;-66
2022/12/10 01:52:51;;;;;;;84.60;41.67;;;;;;;-0.94;100.00;99523.28;5097094;28;20216;-68
2022/12/10 01:55:42;;;;;;;77.20;39.05;;;;;;;-0.93;100.00;99524.97;5062051;28;20222;-69
2022/12/10 01:58:09;;;;;;;79.13;40.83;;;;;;;-1.03;100.00;99529.03;5096559;28;20864;-69
2022/12/10 02:00:41;;;;;;;78.53;40.60;;;;;;;-1.15;100.00;99528.81;5093910;28;20261;-67
2022/12/10 02:03:12;;;;;;;73.40;37.80;;;;;;;-1.27;100.00;99533.84;5102757;28;20251;-67
2022/12/10 02:05:42;;;;;;;75.80;40.08;;;;;;;-1.17;100.00;99529.81;5084364;28;20202;-68
2022/12/10 02:08:14;;;;;;;71.75;35.65;;;;;;;-1.05;100.00;99529.13;5089134;28;20944;-68
2022/12/10 02:10:52;;;;;;;65.63;36.95;;;;;;;-1.24;100.00;99529.28;5084137;28;20209;-68
2022/12/10 02:13:23;;;;;;;68.38;35.47;;;;;;;-1.09;100.00;99525.00;5102478;28;20219;-66
2022/12/10 02:15:52;;;;;;;62.63;35.10;;;;;;;-1.11;100.00;99532.09;5100229;28;20244;-67
2022/12/10 02:18:21;;;;;;;83.88;37.22;;;;;;;-0.99;100.00;99525.31;5095137;28;20286;-68
2022/12/10 02:20:50;;;;;;;68.50;37.28;;;;;;;-1.10;100.00;99532.94;5082320;28;20249;-68
2022/12/10 02:23:22;;;;;;;69.53;35.75;;;;;;;-1.04;100.00;99528.22;5083537;28;20245;-68
2022/12/10 02:25:54;;;;;;;66.10;35.53;;;;;;;-1.04;100.00;99528.22;5098239;28;20279;-68
2022/12/10 02:28:26;;;;;;;67.75;37.05;;;;;;;-0.90;100.00;99531.81;5100281;28;20220;-66
2022/12/10 02:30:56;;;;;;;63.92;34.55;;;;;;;-0.82;100.00;99529.63;5090965;28;20294;-67
2022/12/10 02:33:24;;;;;;;67.72;36.70;;;;;;;-0.78;100.00;99531.16;5087311;28;20210;-69
2022/12/10 02:35:52;;;;;;;70.07;37.70;;;;;;;-0.87;100.00;99527.25;5083426;28;20345;-67
2022/12/10 02:38:23;;;;;;;62.45;37.05;;;;;;;-0.96;100.00;99530.38;5093928;28;20256;-69
2022/12/10 02:40:53;;;;;;;69.70;37.17;;;;;;;-0.86;100.00;99526.31;5089791;28;20264;-69
2022/12/10 02:43:21;;;;;;;69.45;38.20;;;;;;;-0.80;100.00;99523.38;5089284;28;20240;-67
2022/12/10 02:45:48;;;;;;;71.30;35.90;;;;;;;-0.73;100.00;99525.63;5081353;28;20254;-67
2022/12/10 02:48:16;;;;;;;60.30;36.08;;;;;;;-0.73;100.00;99528.25;5081517;28;20535;-68
2022/12/10 02:50:43;;;;;;;69.35;39.38;;;;;;;-0.79;100.00;99527.66;5086699;28;20249;-68
2022/12/10 02:53:09;;;;;;;58.97;35.67;;;;;;;-0.72;100.00;99528.19;5096046;28;20269;-66
2022/12/10 02:55:56;;;;;;;64.97;37.37;;;;;;;-0.75;100.00;99523.09;5085306;28;20229;-68
2022/12/10 02:58:29;;;;;;;69.18;35.50;;;;;;;-0.73;100.00;99530.88;5081081;28;20523;-68
2022/12/10 03:01:02;;;;;;;62.63;34.60;;;;;;;-0.66;100.00;99522.59;5072074;28;20265;-66
2022/12/10 03:03:44;;;;;;;68.38;36.88;;;;;;;-0.67;100.00;99525.31;5081886;28;20230;-68
2022/12/10 03:06:18;;;;;;;63.58;36.97;;;;;;;-0.68;100.00;99523.59;5097271;28;20268;-66
2022/12/10 03:08:50;;;;;;;63.58;35.15;;;;;;;-0.64;100.00;99523.34;5084685;28;20278;-65
2022/12/10 03:11:18;;;;;;;60.22;34.33;;;;;;;-0.79;100.00;99519.78;5082804;28;20325;-66
2022/12/10 03:13:51;;;;;;;60.22;35.70;;;;;;;-0.78;100.00;99516.25;5100885;28;20205;-66
2022/12/10 03:16:18;;;;;;;64.78;36.75;;;;;;;-0.75;100.00;99520.47;5082363;28;20281;-66
2022/12/10 03:18:47;;;;;;;63.25;35.25;;;;;;;-0.76;100.00;99526.66;5084656;28;20193;-67
2022/12/10 03:21:19;;;;;;;60.88;36.33;;;;;;;-0.69;100.00;99529.78;5064908;28;20253;-67
2022/12/10 03:23:47;;;;;;;67.70;35.20;;;;;;;-0.65;100.00;99528.69;5061538;28;20274;-67
2022/12/10 03:26:15;;;;;;;68.85;37.92;;;;;;;-0.73;100.00;99529.09;5095235;28;20257;-68
2022/12/10 03:28:46;;;;;;;69.63;36.70;;;;;;;-0.70;100.00;99530.72;5081825;28;20301;-68
2022/12/10 03:31:14;;;;;;;65.72;37.63;;;;;;;-0.69;100.00;99527.16;5090429;28;21057;-66
2022/12/10 03:33:41;;;;;;;69.75;36.63;;;;;;;-0.68;100.00;99528.84;5078971;28;20202;-68
2022/12/10 03:36:10;;;;;;;66.75;37.33;;;;;;;-0.70;100.00;99526.31;5081019;28;20313;-66
2022/12/10 03:38:38;;;;;;;63.03;35.22;;;;;;;-0.62;100.00;99525.88;5081223;28;20257;-68
2022/12/10 03:41:04;;;;;;;62.13;35.63;;;;;;;-0.62;100.00;99521.47;5095601;28;20241;-67
2022/12/10 03:43:31;;;;;;;62.22;33.75;;;;;;;-0.56;100.00;99528.13;5081026;28;20230;-68
2022/12/10 03:45:58;;;;;;;68.05;36.20;;;;;;;-0.46;100.00;99533.72;5080945;28;20647;-68
2022/12/10 03:48:24;;;;;;;66.15;37.85;;;;;;;-0.54;100.00;99534.16;5080388;28;21423;-66
2022/12/10 03:50:51;;;;;;;63.05;34.88;;;;;;;-0.54;100.00;99526.25;5093404;28;20296;-67
2022/12/10 03:53:19;;;;;;;58.63;35.40;;;;;;;-0.58;100.00;99527.38;5095530;28;20300;-68
2022/12/10 03:55:45;;;;;;;60.53;34.60;;;;;;;-0.64;100.00;99519.88;5098247;28;20305;-68
2022/12/10 03:58:12;;;;;;;60.70;34.10;;;;;;;-0.56;100.00;99522.88;5081002;28;20298;-67
2022/12/10 04:00:39;;;;;;;57.23;34.40;;;;;;;-0.56;100.00;99525.50;5080190;28;20491;-68
2022/12/10 04:03:05;;;;;;;62.83;35.80;;;;;;;-0.63;100.00;99529.44;5099894;28;20455;-68
2022/12/10 04:05:32;;;;;;;62.53;34.72;;;;;;;-0.65;100.00;99523.44;5060064;28;20496;-68
2022/12/10 04:07:58;;;;;;;58.13;33.67;;;;;;;-0.61;100.00;99528.44;5087915;28;20253;-66
2022/12/10 04:10:26;;;;;;;58.85;34.47;;;;;;;-0.52;100.00;99531.44;5074473;28;20254;-67
2022/12/10 04:18:17;;;;;;;59.10;33.67;;;;;;;-0.44;100.00;99535.31;5082532;28;20204;-66
2022/12/10 04:29:12;;;;;;;62.47;34.70;;;;;;;-0.32;100.00;99544.28;5038066;28;20489;-69
2022/12/10 04:31:39;;;;;;;60.17;34.80;;;;;;;-0.27;100.00;99536.97;5066826;28;20488;-67
2022/12/10 04:34:05;;;;;;;55.33;33.07;;;;;;;-0.24;100.00;99543.84;5083216;28;20554;-66
2022/12/10 04:36:32;;;;;;;55.00;33.00;;;;;;;-0.31;100.00;99547.72;5063915;28;20473;-68
2022/12/10 04:38:59;;;;;;;50.35;32.67;;;;;;;-0.29;100.00;99545.88;5084609;28;20476;-68
2022/12/10 04:41:27;;;;;;;60.80;34.27;;;;;;;-0.34;100.00;99550.56;5102352;28;20324;-68
2022/12/10 04:43:54;;;;;;;52.42;32.38;;;;;;;-0.38;100.00;99542.00;5083919;28;20488;-67
2022/12/10 04:46:20;;;;;;;51.47;30.90;;;;;;;-0.43;100.00;99547.53;5090761;28;20309;-66
2022/12/10 04:48:47;;;;;;;53.43;32.10;;;;;;;-0.50;100.00;99538.31;5094671;28;20571;-68
2022/12/10 04:51:14;;;;;;;52.85;32.47;;;;;;;-0.48;100.00;99538.22;5083518;28;20496;-68
2022/12/10 04:53:40;;;;;;;55.90;34.88;;;;;;;-0.49;100.00;99541.78;5096406;28;20240;-68
2022/12/10 04:56:07;;;;;;;55.93;33.33;;;;;;;-0.45;100.00;99541.50;5097195;28;20249;-68
2022/12/10 04:58:35;;;;;;;49.70;30.63;;;;;;;-0.45;100.00;99545.91;5094586;28;20443;-68
2022/12/10 05:01:03;;;;;;;55.78;33.97;;;;;;;-0.42;100.00;99540.47;5082704;28;20555;-67
2022/12/10 05:03:30;;;;;;;52.70;31.43;;;;;;;-0.56;100.00;99549.16;5096856;28;20205;-69
2022/12/10 05:05:57;;;;;;;57.57;34.30;;;;;;;-0.49;100.00;99545.22;5103789;28;20495;-67
2022/12/10 05:08:23;;;;;;;52.90;33.87;;;;;;;-0.45;100.00;99543.28;5099076;28;20475;-68
2022/12/10 05:10:50;;;;;;;50.17;31.48;;;;;;;-0.47;100.00;99546.00;5089769;28;20495;-68
2022/12/10 05:13:16;;;;;;;52.77;33.33;;;;;;;-0.44;100.00;99556.31;5086648;28;20234;-68
2022/12/10 05:15:44;;;;;;;51.57;32.67;;;;;;;-0.38;100.00;99549.88;5088122;28;20501;-69
2022/12/10 05:18:11;;;;;;;54.57;32.13;;;;;;;-0.35;100.00;99552.31;5086442;28;20520;-68
2022/12/10 05:20:37;;;;;;;52.65;33.22;;;;;;;-0.34;100.00;99540.88;5086846;28;20562;-69
2022/12/10 05:25:53;;;;;;;50.45;32.20;;;;;;;-0.38;100.00;99540.22;5074195;28;20791;-66
2022/12/10 05:28:20;;;;;;;56.33;34.92;;;;;;;-0.36;100.00;99545.38;5087916;28;20227;-68
2022/12/10 05:30:48;;;;;;;59.83;34.28;;;;;;;-0.35;100.00;99538.34;5086272;28;20301;-66
2022/12/10 05:33:15;;;;;;;59.47;33.53;;;;;;;-0.38;100.00;99545.47;5083537;28;20214;-68
2022/12/10 05:35:42;;;;;;;55.67;33.35;;;;;;;-0.32;100.00;99551.31;5090106;28;20683;-66
2022/12/10 05:38:10;;;;;;;53.05;32.08;;;;;;;-0.31;100.00;99547.72;5095078;28;20294;-68
2022/12/10 05:40:36;;;;;;;51.43;33.30;;;;;;;-0.29;100.00;99548.50;5086127;28;20233;-68
2022/12/10 05:43:03;;;;;;;54.40;32.30;;;;;;;-0.27;100.00;99549.25;5083506;28;20527;-68
2022/12/10 05:45:30;;;;;;;56.22;32.05;;;;;;;-0.30;100.00;99546.81;5096064;28;20296;-69
2022/12/10 05:48:00;;;;;;;58.10;33.67;;;;;;;-0.30;100.00;99558.16;5097276;28;20328;-64
2022/12/10 05:50:27;;;;;;;51.45;32.17;;;;;;;-0.35;100.00;99556.72;5062587;28;20495;-67
2022/12/10 05:52:54;;;;;;;52.60;33.30;;;;;;;-0.34;100.00;99559.28;5071473;28;20264;-66
2022/12/10 05:55:20;;;;;;;57.95;33.63;;;;;;;-0.40;100.00;99557.00;5094776;28;20237;-67
2022/12/10 05:57:47;;;;;;;48.60;33.00;;;;;;;-0.30;100.00;99555.53;5085256;28;20214;-66
2022/12/10 06:00:14;;;;;;;57.15;34.33;;;;;;;-0.26;100.00;99564.94;5101049;28;20251;-65
2022/12/10 06:02:41;;;;;;;45.43;29.53;;;;;;;-0.26;100.00;99561.44;5092822;28;20241;-67
2022/12/10 06:05:09;;;;;;;50.60;32.53;;;;;;;-0.19;100.00;99568.06;5097020;28;20493;-67
2022/12/10 06:07:36;;;;;;;52.57;32.83;;;;;;;-0.36;100.00;99560.28;5082816;28;20437;-67
2022/12/10 06:10:03;;;;;;;51.23;32.70;;;;;;;-0.31;100.00;99559.09;5103015;28;20483;-67
2022/12/10 06:12:29;;;;;;;52.47;31.83;;;;;;;-0.29;100.00;99567.72;5092089;28;21438;-67
2022/12/10 06:14:56;;;;;;;61.23;34.67;;;;;;;-0.28;100.00;99574.69;5102612;28;20511;-66
2022/12/10 06:17:23;;;;;;;53.20;33.17;;;;;;;-0.26;100.00;99558.81;5083031;28;20539;-68
2022/12/10 06:19:49;;;;;;;53.08;33.72;;;;;;;-0.22;100.00;99563.81;5088886;28;20580;-69
2022/12/10 06:22:17;;;;;;;50.85;32.53;;;;;;;-0.22;100.00;99565.59;5081878;28;20297;-67
2022/12/10 06:24:44;;;;;;;55.45;33.45;;;;;;;-0.24;100.00;99570.09;5102755;28;20209;-67
2022/12/10 06:27:10;;;;;;;56.90;34.07;;;;;;;-0.26;100.00;99567.56;5098617;28;20244;-68
2022/12/10 06:29:37;;;;;;;55.30;36.13;;;;;;;-0.26;100.00;99564.94;5094926;28;20515;-66
2022/12/10 06:32:04;;;;;;;53.70;33.00;;;;;;;-0.25;100.00;99565.78;5094503;28;20483;-68
2022/12/10 06:34:31;;;;;;;56.65;32.95;;;;;;;-0.24;100.00;99565.69;5086320;28;20508;-68
2022/12/10 06:36:57;;;;;;;57.20;32.37;;;;;;;-0.22;100.00;99563.81;5086598;28;20273;-66
2022/12/10 06:39:25;;;;;;;56.10;33.00;;;;;;;-0.28;100.00;99579.09;5087236;28;20471;-66
2022/12/10 06:41:52;;;;;;;58.20;35.73;;;;;;;-0.27;100.00;99573.75;5081209;28;20571;-66
2022/12/10 06:44:18;;;;;;;56.22;31.63;;;;;;;-0.20;100.00;99572.44;5084563;28;21775;-67
2022/12/10 06:46:45;;;;;;;52.77;32.90;;;;;;;-0.17;100.00;99579.31;5100453;28;20298;-67
2022/12/10 06:49:12;;;;;;;51.63;32.80;;;;;;;-0.13;100.00;99582.63;5082641;28;20499;-67
2022/12/10 06:51:38;;;;;;;52.40;31.03;;;;;;;-0.12;100.00;99581.66;5084399;28;20463;-69
2022/12/10 06:54:05;;;;;;;55.45;31.98;;;;;;;-0.25;100.00;99586.78;5086483;28;20481;-69
2022/12/10 06:56:33;;;;;;;51.83;35.37;;;;;;;-0.33;100.00;99578.50;5081449;28;20264;-68
2022/12/10 06:59:00;;;;;;;52.90;33.15;;;;;;;-0.30;100.00;99576.53;5086250;28;20578;-67
2022/12/10 07:01:27;;;;;;;51.13;32.40;;;;;;;-0.23;100.00;99580.50;5100668;28;20241;-68
2022/12/10 07:03:55;;;;;;;56.83;35.80;;;;;;;-0.26;100.00;99579.84;5083261;28;20275;-68
2022/12/10 07:06:21;;;;;;;60.83;35.55;;;;;;;-0.28;100.00;99585.19;5101146;28;20237;-68
2022/12/10 07:08:48;;;;;;;58.13;34.47;;;;;;;-0.34;100.00;99584.69;5099991;28;20233;-66
2022/12/10 07:11:17;;;;;;;63.72;39.38;;;;;;;-0.38;100.00;99590.13;5080703;28;21091;-65
2022/12/10 07:13:45;;;;;;;56.80;32.28;;;;;;;-0.31;100.00;99592.38;5081786;28;20218;-66
2022/12/10 07:16:14;;;;;;;57.47;35.10;;;;;;;-0.21;100.00;99594.41;5080611;28;20324;-65
2022/12/10 07:18:41;;;;;;;54.73;33.80;;;;;;;-0.16;100.00;99594.13;5081473;28;20699;-66
2022/12/10 07:21:14;;;;;;;57.50;34.90;;;;;;;-0.18;100.00;99596.00;5088204;28;20543;-68
2022/12/10 07:23:40;;;;;;;57.13;33.63;;;;;;;-0.20;100.00;99596.09;5091439;28;20476;-69
2022/12/10 07:26:07;;;;;;;60.15;36.63;;;;;;;-0.16;100.00;99598.56;5061185;28;20273;-67
2022/12/10 07:28:34;;;;;;;56.88;33.50;;;;;;;-0.21;100.00;99604.94;5081019;28;20246;-60
2022/12/10 07:31:03;;;;;;;51.27;33.70;;;;;;;-0.16;100.00;99603.81;5096719;28;20264;-60
2022/12/10 07:33:30;;;;;;;45.25;28.10;;;;;;;0.38;100.00;99604.13;5098342;28;20495;-60
2022/12/10 07:35:57;;;;;;;57.13;35.40;;;;;;;0.54;100.00;99604.06;5083848;28;20769;-60
2022/12/10 07:38:23;;;;;;;49.53;32.67;;;;;;;0.73;100.00;99617.78;5075266;28;20498;-59
2022/12/10 07:40:50;;;;;;;50.30;34.70;;;;;;;1.53;100.00;99617.22;5070245;28;20504;-60
2022/12/10 07:43:17;;;;;;;53.00;35.90;;;;;;;1.17;100.00;99612.50;5073351;28;20487;-60
2022/12/10 07:45:43;;;;;;;56.43;35.20;;;;;;;0.58;100.00;99615.25;5076166;28;20530;-59
2022/12/10 07:48:11;;;;;;;53.17;34.30;;;;;;;0.64;99.94;99618.31;5071838;28;20532;-59
2022/12/10 07:50:38;;;;;;;51.40;33.20;;;;;;;0.45;99.61;99610.72;5071772;28;20503;-60
2022/12/10 07:53:04;;;;;;;52.00;34.10;;;;;;;0.39;100.00;99618.97;5070701;28;20473;-60
2022/12/10 07:55:31;;;;;;;51.60;31.50;;;;;;;0.38;100.00;99622.53;5070182;28;20485;-60
2022/12/10 07:57:58;;;;;;;51.17;32.43;;;;;;;0.44;100.00;99624.78;5069898;28;20229;-60
2022/12/10 08:00:24;;;;;;;51.67;33.80;;;;;;;0.32;100.00;99628.16;5069736;28;20480;-62
2022/12/10 08:02:51;;;;;;;50.40;33.33;;;;;;;0.24;100.00;99630.38;5067558;28;20473;-60
2022/12/10 08:05:19;;;;;;;58.17;33.93;;;;;;;0.12;100.00;99629.31;5063973;28;20536;-62
2022/12/10 08:07:46;;;;;;;51.13;33.50;;;;;;;0.11;100.00;99631.09;5067132;28;20451;-61
2022/12/10 08:10:13;;;;;;;50.73;33.03;;;;;;;0.05;100.00;99639.34;5064929;28;20512;-60
2022/12/10 08:12:39;;;;;;;55.50;32.40;;;;;;;0.06;100.00;99641.03;5072158;28;20512;-61
2022/12/10 08:15:07;;;;;;;55.30;33.38;;;;;;;0.22;100.00;99648.88;5074233;28;20493;-61
2022/12/10 08:17:36;;;;;;;51.43;31.83;;;;;;;0.34;100.00;99644.69;5068597;28;20226;-61
2022/12/10 08:20:02;;;;;;;49.92;32.88;;;;;;;0.32;100.00;99654.44;5063619;28;20429;-61
2022/12/10 08:22:30;;;;;;;51.97;35.30;;;;;;;0.17;100.00;99653.56;5069063;28;20252;-61
2022/12/10 08:24:57;;;;;;;54.80;34.00;;;;;;;0.26;100.00;99650.41;5073748;28;20449;-61
2022/12/10 08:27:24;;;;;;;52.85;34.20;;;;;;;0.40;100.00;99646.09;5073550;28;20484;-62
2022/12/10 08:29:50;;;;;;;54.07;34.47;;;;;;;0.20;100.00;99653.38;5070956;28;20221;-61
2022/12/10 08:32:17;;;;;;;50.63;32.83;;;;;;;0.13;100.00;99654.69;5075212;28;20504;-60
2022/12/10 08:34:43;;;;;;;50.63;32.17;;;;;;;0.13;100.00;99655.53;5072452;28;20234;-61
2022/12/10 08:37:10;;;;;;;54.27;32.73;;;;;;;0.18;100.00;99665.78;5077465;28;20512;-61
2022/12/10 08:39:38;;;;;;;55.27;32.50;;;;;;;0.15;100.00;99655.44;5082749;28;20483;-61
2022/12/10 08:42:05;;;;;;;54.00;34.57;;;;;;;0.10;100.00;99660.94;5084169;28;20484;-61
2022/12/10 08:44:31;;;;;;;48.93;31.30;;;;;;;0.19;100.00;99662.19;5081956;28;20456;-61
2022/12/10 08:46:58;;;;;;;45.80;31.37;;;;;;;0.21;100.00;99672.63;5093718;28;20514;-61
2022/12/10 08:49:24;;;;;;;52.23;33.60;;;;;;;0.18;100.00;99666.63;5091198;28;20542;-61
2022/12/10 08:51:51;;;;;;;52.07;33.53;;;;;;;0.45;100.00;99672.97;5086541;28;20471;-61
2022/12/10 08:54:18;;;;;;;51.53;32.83;;;;;;;0.35;100.00;99672.69;5078240;28;20551;-61
2022/12/10 08:56:46;;;;;;;55.77;33.87;;;;;;;0.36;100.00;99662.09;5062292;28;20477;-61
2022/12/10 08:59:13;;;;;;;59.13;35.47;;;;;;;0.42;100.00;99679.28;5077411;28;20488;-61
2022/12/10 09:01:39;;;;;;;54.37;35.43;;;;;;;0.49;100.00;99670.09;5082298;28;20476;-61
2022/12/10 09:04:07;;;;;;;59.07;35.53;;;;;;;0.49;100.00;99669.25;5094360;28;20513;-61
2022/12/10 09:06:34;;;;;;;51.20;34.83;;;;;;;0.60;100.00;99677.31;5086595;28;20468;-61
2022/12/10 09:09:01;;;;;;;53.47;34.57;;;;;;;0.62;100.00;99674.63;5092433;28;20574;-60
2022/12/10 09:11:29;;;;;;;51.60;33.70;;;;;;;0.45;100.00;99678.22;5099641;28;20495;-61
2022/12/10 09:13:57;;;;;;;59.67;37.80;;;;;;;0.48;100.00;99678.91;5095509;28;20462;-61
2022/12/10 09:16:29;;;;;;;64.20;36.60;;;;;;;0.48;100.00;99681.53;5085453;28;20468;-61
2022/12/10 09:18:56;;;;;;;53.17;35.20;;;;;;;0.61;100.00;99688.69;5085795;28;20464;-61
2022/12/10 09:21:23;;;;;;;55.40;36.37;;;;;;;0.61;100.00;99692.19;5089433;28;20510;-61
2022/12/10 09:23:50;;;;;;;59.30;39.30;;;;;;;0.68;100.00;99692.69;5080792;28;20479;-61
2022/12/10 09:26:17;;;;;;;58.23;35.93;;;;;;;0.73;100.00;99690.63;5082910;28;20919;-61
2022/12/10 09:28:44;;;;;;;55.87;36.90;;;;;;;0.80;100.00;99693.69;5102871;28;20519;-61
2022/12/10 09:31:13;;;;;;;54.97;36.30;;;;;;;0.74;100.00;99701.03;5084514;28;20476;-61
2022/12/10 09:33:41;;;;;;;54.27;35.57;;;;;;;0.83;100.00;99701.41;5090637;28;20456;-62
2022/12/10 09:36:09;;;;;;;51.67;34.57;;;;;;;0.97;100.00;99701.41;5082476;28;20502;-61
2022/12/10 09:38:36;;;;;;;58.57;33.87;;;;;;;0.90;100.00;99700.09;5081242;28;20555;-61
2022/12/10 09:41:05;;;;;;;53.80;35.67;;;;;;;0.91;100.00;99694.75;5081538;28;20488;-61
2022/12/10 09:43:46;;;;;;;53.50;36.30;;;;;;;0.90;100.00;99685.19;5101489;28;20895;-59
2022/12/10 09:46:21;;;;;;;62.93;37.33;;;;;;;0.93;100.00;99689.41;5097148;28;20489;-61
2022/12/10 09:48:58;;;;;;;59.00;35.63;;;;;;;0.75;99.96;99697.47;5094525;28;20495;-61
2022/12/10 09:51:26;;;;;;;54.53;34.50;;;;;;;0.80;99.79;99699.81;5100366;28;20491;-61
2022/12/10 09:53:58;;;;;;;59.60;36.23;;;;;;;0.86;99.86;99703.88;5081655;28;20521;-62
2022/12/10 09:56:27;;;;;;;55.70;36.80;;;;;;;0.83;99.81;99698.78;5092448;28;20499;-61
2022/12/10 09:58:54;;;;;;;52.47;34.73;;;;;;;0.82;99.67;99697.13;5089163;28;20997;-61
2022/12/10 10:01:26;;;;;;;55.90;34.77;;;;;;;0.72;99.66;99694.16;5099534;28;20516;-61
2022/12/10 10:03:53;;;;;;;54.83;36.80;;;;;;;0.70;99.56;99702.16;5087762;28;20496;-61
2022/12/10 10:06:20;;;;;;;58.63;35.33;;;;;;;0.61;100.00;99700.06;5081640;28;20502;-61
2022/12/10 10:08:49;;;;;;;63.33;38.43;;;;;;;0.80;100.00;99698.97;5081186;28;20454;-61
2022/12/10 10:11:19;;;;;;;58.50;35.80;;;;;;;0.73;100.00;99699.34;5081155;28;21020;-62
2022/12/10 10:13:51;;;;;;;56.83;35.10;;;;;;;0.92;99.99;99700.84;5080842;28;20488;-61
2022/12/10 10:16:24;;;;;;;56.00;33.87;;;;;;;1.10;99.74;99702.38;5078964;28;20563;-61
2022/12/10 10:18:56;;;;;;;59.30;37.30;;;;;;;1.06;99.19;99694.75;5080549;28;20523;-61
2022/12/10 10:21:25;;;;;;;63.60;36.90;;;;;;;1.05;99.46;99693.06;5080835;28;20495;-61
2022/12/10 10:23:52;;;;;;;57.77;35.10;;;;;;;1.17;99.53;99697.59;5079937;28;20451;-61
2022/12/10 10:26:18;;;;;;;53.30;36.00;;;;;;;1.19;99.60;99697.50;5080787;28;20483;-62
2022/12/10 10:28:46;;;;;;;53.67;33.90;;;;;;;1.19;99.90;99700.97;5080127;28;20512;-61
2022/12/10 10:31:18;;;;;;;59.90;36.90;;;;;;;1.15;99.72;99693.34;5079275;28;20479;-62
2022/12/10 10:33:56;;;;;;;59.40;36.90;;;;;;;1.18;99.60;99691.38;5089611;28;20814;-61
2022/12/10 10:36:25;;;;;;;58.33;35.93;;;;;;;1.24;99.01;99692.78;5097417;28;20480;-62
2022/12/10 10:38:51;;;;;;;62.03;35.60;;;;;;;1.27;97.76;99689.97;5089528;28;20478;-61
2022/12/10 10:41:18;;;;;;;58.37;38.10;;;;;;;1.23;96.84;99683.19;5093438;28;20963;-62
2022/12/10 10:43:45;;;;;;;49.93;32.60;;;;;;;1.30;95.93;99684.50;5098172;28;20472;-62
2022/12/10 10:46:13;;;;;;;52.63;32.70;;;;;;;1.35;95.01;99679.78;5089765;28;20571;-62
2022/12/10 10:48:40;;;;;;;48.57;30.43;;;;;;;1.33;94.30;99691.38;5070927;28;20451;-61
2022/12/10 10:51:15;;;;;;;43.40;29.17;;;;;;;1.24;92.51;99690.16;5095878;28;20502;-61
2022/12/10 10:53:43;;;;;;;44.50;31.13;;;;;;;1.39;90.28;99693.59;5079073;28;21006;-61
2022/12/10 10:56:16;;;;;;;32.97;22.60;;;;;;;1.35;88.66;99679.78;5088163;28;20543;-61
2022/12/10 10:58:50;;;;;;;33.80;24.03;;;;;;;1.56;87.20;99690.75;5100542;28;20479;-61
2022/12/10 11:01:17;;;;;;;30.87;21.70;;;;;;;1.29;88.20;99682.81;5089068;28;20513;-61
2022/12/10 11:03:47;;;;;;;30.63;20.10;;;;;;;1.11;87.57;99696.19;5089506;28;20976;-61
2022/12/10 11:06:16;;;;;;;28.73;22.30;;;;;;;1.31;87.02;99696.72;5097977;28;20519;-62
2022/12/10 11:08:43;;;;;;;31.40;22.70;;;;;;;1.30;86.45;99695.91;5078973;28;20517;-61
2022/12/10 11:11:13;;;;;;;36.90;23.90;;;;;;;1.26;86.81;99698.81;5084634;28;21038;-61
2022/12/10 11:13:40;;;;;;;23.43;17.50;;;;;;;1.48;85.12;99685.97;5081868;28;20491;-61
2022/12/10 11:16:13;;;;;;;25.17;17.30;;;;;;;1.46;81.02;99687.88;5090868;28;20482;-61
2022/12/10 11:18:42;;;;;;;21.07;15.33;;;;;;;1.47;80.94;99684.28;5097393;28;20476;-62
2022/12/10 11:21:21;;;;;;;20.30;15.27;;;;;;;1.69;79.53;99696.13;5097101;28;20479;-62
2022/12/10 11:23:49;;;;;;;21.20;14.83;;;;;;;1.65;78.72;99691.97;5095670;28;20456;-62
2022/12/10 11:26:29;;;;;;;20.10;14.70;;;;;;;1.64;77.99;99695.56;5094154;28;20479;-61
2022/12/10 11:29:06;;;;;;;26.50;15.90;;;;;;;1.73;79.04;99691.50;5097817;28;20443;-61
2022/12/10 11:31:40;;;;;;;16.27;12.37;;;;;;;1.43;78.27;99687.22;5094535;28;20516;-61
2022/12/10 11:34:15;;;;;;;15.77;11.00;;;;;;;1.36;75.92;99688.56;5099672;28;20474;-62